Time;durP1;ratioP1;P1;durP2;ratioP2;P2;SDS_P1;SDS_P2;PMS_P1;PMS_P2;Temp;Humidity;BMP_temperature;BMP_pressure;BME280_temperature;BME280_humidity;BME280_pressure;Samples;Min_cycle;Max_cycle;Signal;HPM_P1;HPM_P2
2022/12/13 00:01:20;;;;;;;29.80;16.77;;;10.50;49.40;;;;;;5051542;28;20453;-78
2022/12/13 00:03:48;;;;;;;33.57;16.90;;;10.50;49.50;;;;;;5051461;28;20479;-77
2022/12/13 00:06:16;;;;;;;26.80;16.10;;;10.50;49.50;;;;;;5059139;28;20499;-77
2022/12/13 00:08:44;;;;;;;33.13;16.43;;;10.50;49.60;;;;;;5049823;28;20478;-77
2022/12/13 00:11:12;;;;;;;33.80;17.40;;;10.50;49.60;;;;;;5053471;28;20454;-78
2022/12/13 00:13:41;;;;;;;30.27;16.53;;;10.50;49.60;;;;;;5049361;28;20473;-78
2022/12/13 00:16:11;;;;;;;28.70;16.30;;;10.50;49.60;;;;;;5049160;28;20474;-77
2022/12/13 00:18:41;;;;;;;27.77;15.90;;;10.40;49.50;;;;;;5059317;28;20469;-77
2022/12/13 00:21:12;;;;;;;27.70;15.47;;;10.40;49.50;;;;;;5050025;28;20465;-78
2022/12/13 00:23:40;;;;;;;30.97;15.80;;;10.40;49.40;;;;;;5056557;28;20477;-77
2022/12/13 00:26:11;;;;;;;32.53;16.10;;;10.40;49.40;;;;;;5048748;28;20463;-77
2022/12/13 00:28:38;;;;;;;27.37;16.20;;;10.40;49.30;;;;;;5053705;28;20478;-77
2022/12/13 00:31:07;;;;;;;32.53;16.83;;;10.40;49.40;;;;;;5050112;28;20461;-77
2022/12/13 00:33:57;;;;;;;27.67;15.80;;;10.40;49.30;;;;;;5047546;28;20484;-77
2022/12/13 00:36:25;;;;;;;26.67;15.93;;;10.40;49.20;;;;;;5047111;28;20463;-78
2022/12/13 00:39:00;;;;;;;28.10;15.97;;;10.30;49.40;;;;;;5059031;28;20494;-77
2022/12/13 00:41:29;;;;;;;29.67;15.80;;;10.30;49.40;;;;;;5050110;28;20477;-78
2022/12/13 00:43:57;;;;;;;30.20;16.23;;;10.30;49.30;;;;;;5050034;28;20489;-78
2022/12/13 00:46:25;;;;;;;29.07;16.37;;;10.30;49.40;;;;;;5044535;28;20444;-78
2022/12/13 00:48:54;;;;;;;29.60;16.30;;;10.30;49.40;;;;;;5044304;28;20459;-78
2022/12/13 00:51:24;;;;;;;28.37;16.03;;;10.30;49.40;;;;;;5044887;28;20444;-78
2022/12/13 00:53:52;;;;;;;29.23;15.80;;;10.20;49.40;;;;;;5044285;28;20454;-77
2022/12/13 00:56:22;;;;;;;26.93;15.00;;;10.20;49.30;;;;;;5057770;28;20454;-78
2022/12/13 00:58:50;;;;;;;29.07;16.33;;;10.20;49.30;;;;;;5052276;28;20532;-77
2022/12/13 01:01:20;;;;;;;28.57;16.03;;;10.20;49.30;;;;;;5048863;28;20451;-77
2022/12/13 01:03:48;;;;;;;26.40;15.07;;;10.20;49.30;;;;;;5047561;28;20469;-78
2022/12/13 01:06:18;;;;;;;27.30;15.20;;;10.20;49.30;;;;;;5043514;28;20459;-77
2022/12/13 01:08:47;;;;;;;29.83;15.57;;;10.20;49.20;;;;;;5047274;28;20474;-77
2022/12/13 01:11:15;;;;;;;29.27;16.37;;;10.20;49.40;;;;;;5058247;28;20458;-77
2022/12/13 01:13:43;;;;;;;31.27;17.07;;;10.20;49.20;;;;;;5051290;28;20477;-77
2022/12/13 01:16:12;;;;;;;28.97;16.20;;;10.20;49.30;;;;;;5047865;28;20454;-78
2022/12/13 01:18:40;;;;;;;28.63;15.67;;;10.20;49.40;;;;;;5047825;28;20471;-76
2022/12/13 01:21:10;;;;;;;30.93;16.70;;;10.20;49.40;;;;;;5047233;28;20966;-78
2022/12/13 01:23:38;;;;;;;31.90;16.40;;;10.20;49.50;;;;;;5051854;28;20478;-77
2022/12/13 01:26:09;;;;;;;29.63;16.00;;;10.20;49.50;;;;;;5049926;28;20446;-78
2022/12/13 01:28:37;;;;;;;27.47;15.00;;;10.20;49.40;;;;;;5052924;28;20477;-77
2022/12/13 01:31:06;;;;;;;39.60;20.30;;;10.20;49.50;;;;;;5047921;28;20450;-78
2022/12/13 01:33:34;;;;;;;36.10;19.40;;;10.20;49.60;;;;;;5057425;28;20515;-78
2022/12/13 01:36:02;;;;;;;41.17;19.50;;;10.20;49.50;;;;;;5052843;28;20457;-77
2022/12/13 01:38:29;;;;;;;37.53;18.27;;;10.20;49.70;;;;;;5054641;28;20489;-78
2022/12/13 01:41:04;;;;;;;35.93;19.60;;;10.20;49.70;;;;;;5061853;28;20454;-78
2022/12/13 01:43:54;;;;;;;33.77;17.80;;;10.20;49.80;;;;;;5049913;28;20473;-77
2022/12/13 01:46:23;;;;;;;36.23;18.87;;;10.20;49.70;;;;;;5058631;28;20460;-78
2022/12/13 01:48:54;;;;;;;39.47;19.40;;;10.20;49.90;;;;;;5050108;28;20475;-77
2022/12/13 01:51:26;;;;;;;35.60;18.93;;;10.20;49.80;;;;;;5054048;28;20446;-78
2022/12/13 01:53:54;;;;;;;32.50;18.07;;;10.20;49.80;;;;;;5046836;28;20454;-77
2022/12/13 01:56:25;;;;;;;35.33;18.40;;;10.20;50.00;;;;;;5055259;28;20457;-79
2022/12/13 01:58:54;;;;;;;34.80;17.83;;;10.20;50.00;;;;;;5048867;28;20467;-77
2022/12/13 02:01:22;;;;;;;34.77;18.70;;;10.20;49.90;;;;;;5055299;28;20453;-78
2022/12/13 02:03:50;;;;;;;33.97;18.50;;;10.20;50.00;;;;;;5050857;28;20478;-77
2022/12/13 02:06:19;;;;;;;32.50;17.60;;;10.20;50.00;;;;;;5050026;28;20466;-78
2022/12/13 02:08:47;;;;;;;29.77;17.40;;;10.20;50.10;;;;;;5057082;28;20473;-77
2022/12/13 02:11:14;;;;;;;32.67;17.37;;;10.20;50.00;;;;;;5048275;28;20477;-78
2022/12/13 02:13:42;;;;;;;31.03;17.60;;;10.20;50.70;;;;;;5048501;28;20458;-77
2022/12/13 02:16:14;;;;;;;32.03;17.83;;;10.20;50.10;;;;;;5048514;28;20452;-78
2022/12/13 02:18:57;;;;;;;30.33;17.40;;;10.20;50.10;;;;;;5055956;28;20552;-77
2022/12/13 02:21:31;;;;;;;32.90;17.23;;;10.20;50.30;;;;;;5053278;28;20568;-78
2022/12/13 02:24:34;;;;;;;33.00;18.40;;;10.20;50.20;;;;;;5034900;28;20468;-78
2022/12/13 02:27:09;;;;;;;32.80;18.80;;;10.20;50.20;;;;;;5053330;28;20442;-77
2022/12/13 02:30:06;;;;;;;33.03;17.73;;;10.20;50.30;;;;;;5054764;28;20525;-77
2022/12/13 02:32:38;;;;;;;33.97;17.60;;;10.20;50.40;;;;;;5052975;28;20451;-77
2022/12/13 02:35:08;;;;;;;31.87;18.33;;;10.20;50.40;;;;;;5048135;28;20454;-77
2022/12/13 02:37:43;;;;;;;33.27;17.60;;;10.20;50.40;;;;;;5047433;28;20474;-77
2022/12/13 02:40:15;;;;;;;29.50;16.40;;;10.20;50.40;;;;;;5046591;28;20442;-78
2022/12/13 02:42:45;;;;;;;33.10;17.30;;;10.20;50.50;;;;;;5047013;28;20480;-76
2022/12/13 02:45:14;;;;;;;32.10;17.70;;;10.20;50.60;;;;;;5049695;28;20467;-77
2022/12/13 02:47:48;;;;;;;28.20;15.57;;;10.20;50.60;;;;;;5045312;28;20562;-77
2022/12/13 02:50:16;;;;;;;27.80;16.10;;;10.20;50.60;;;;;;5048131;28;20492;-77
2022/12/13 02:52:45;;;;;;;27.40;15.77;;;10.20;50.70;;;;;;5053631;28;20459;-77
2022/12/13 02:55:14;;;;;;;29.33;16.27;;;10.20;50.70;;;;;;5053130;28;20474;-78
2022/12/13 02:57:43;;;;;;;30.07;16.97;;;10.20;50.70;;;;;;5051603;28;20553;-76
2022/12/13 03:00:14;;;;;;;31.53;16.30;;;10.20;50.70;;;;;;5058164;28;20459;-77
2022/12/13 03:02:46;;;;;;;31.37;17.03;;;10.20;50.80;;;;;;5049431;28;20450;-77
2022/12/13 03:08:20;;;;;;;28.63;15.17;;;10.20;50.80;;;;;;4971571;28;20470;-78
2022/12/13 03:10:53;;;;;;;31.90;15.80;;;10.20;51.00;;;;;;5035549;28;20445;-77
2022/12/13 03:13:36;;;;;;;29.87;15.87;;;10.20;51.00;;;;;;5054460;28;20451;-77
2022/12/13 03:16:21;;;;;;;30.23;16.63;;;10.20;51.00;;;;;;5046993;28;20451;-77
2022/12/13 03:18:50;;;;;;;28.60;15.73;;;10.20;50.90;;;;;;5047776;28;20477;-77
2022/12/13 03:21:19;;;;;;;28.80;15.40;;;10.20;51.00;;;;;;5047741;28;20459;-77
2022/12/13 03:23:47;;;;;;;31.40;16.10;;;10.20;51.00;;;;;;5043140;28;20533;-76
2022/12/13 03:26:16;;;;;;;28.60;15.53;;;10.20;51.10;;;;;;5053549;28;20454;-76
2022/12/13 03:28:45;;;;;;;30.50;15.93;;;10.20;51.00;;;;;;5051164;28;20473;-75
2022/12/13 03:31:12;;;;;;;29.97;15.27;;;10.20;51.00;;;;;;5052333;28;20446;-77
2022/12/13 03:33:41;;;;;;;27.37;15.07;;;10.20;51.10;;;;;;5050264;28;20456;-77
2022/12/13 03:36:09;;;;;;;26.03;15.60;;;10.20;51.00;;;;;;5051337;28;20463;-77
2022/12/13 03:38:38;;;;;;;25.93;15.27;;;10.20;51.00;;;;;;5048956;28;20483;-78
2022/12/13 03:41:08;;;;;;;24.90;14.50;;;10.30;51.10;;;;;;5057047;28;20524;-77
2022/12/13 03:43:36;;;;;;;25.40;15.00;;;10.20;51.60;;;;;;5049289;28;20458;-77
2022/12/13 03:46:04;;;;;;;27.20;15.10;;;10.20;51.00;;;;;;5047292;28;20451;-77
2022/12/13 03:48:32;;;;;;;30.67;15.73;;;10.20;51.00;;;;;;5054337;28;20620;-77
2022/12/13 03:51:00;;;;;;;25.97;14.60;;;10.20;51.00;;;;;;5056640;28;20462;-77
2022/12/13 03:53:28;;;;;;;28.20;16.50;;;10.20;51.10;;;;;;5059563;28;20461;-77
2022/12/13 03:56:03;;;;;;;27.53;14.53;;;10.20;51.00;;;;;;5048584;28;20450;-77
2022/12/13 03:58:31;;;;;;;25.63;14.57;;;10.20;51.30;;;;;;5045808;28;20474;-76
2022/12/13 04:01:03;;;;;;;31.87;15.90;;;10.20;51.20;;;;;;5041282;28;20453;-77
2022/12/13 04:03:32;;;;;;;30.63;15.30;;;10.20;51.10;;;;;;5046381;28;20451;-78
2022/12/13 04:05:59;;;;;;;22.93;13.53;;;10.20;51.20;;;;;;5048462;28;20474;-76
2022/12/13 04:08:28;;;;;;;29.47;15.10;;;10.20;51.10;;;;;;5052659;28;20469;-78
2022/12/13 04:10:56;;;;;;;24.77;13.60;;;10.20;51.30;;;;;;5050395;28;20451;-76
2022/12/13 04:13:33;;;;;;;28.80;14.53;;;10.20;51.40;;;;;;5056270;28;20473;-77
2022/12/13 04:16:01;;;;;;;25.20;13.27;;;10.30;51.30;;;;;;5042185;28;20538;-76
2022/12/13 04:18:30;;;;;;;27.37;14.70;;;10.20;51.20;;;;;;5052042;28;20477;-77
2022/12/13 04:20:57;;;;;;;29.93;15.73;;;10.20;51.40;;;;;;5047993;28;20508;-77
2022/12/13 04:23:25;;;;;;;28.33;14.80;;;10.20;51.40;;;;;;5049999;28;20477;-78
2022/12/13 04:25:53;;;;;;;27.90;13.87;;;10.20;51.40;;;;;;5046495;28;20475;-76
2022/12/13 04:28:21;;;;;;;25.97;14.70;;;10.20;51.40;;;;;;5050249;28;20466;-77
2022/12/13 04:30:51;;;;;;;25.97;13.90;;;10.20;51.50;;;;;;5047619;28;20489;-76
2022/12/13 04:33:21;;;;;;;27.90;14.63;;;10.20;51.40;;;;;;5050534;28;20450;-77
2022/12/13 04:35:49;;;;;;;27.17;13.80;;;10.20;51.50;;;;;;5047827;28;20451;-75
2022/12/13 04:38:17;;;;;;;25.60;14.00;;;10.20;51.40;;;;;;5043406;28;20474;-76
2022/12/13 04:40:44;;;;;;;24.03;13.63;;;10.30;51.50;;;;;;5044067;28;20454;-77
2022/12/13 04:43:12;;;;;;;26.20;14.20;;;10.20;51.50;;;;;;5051875;28;20462;-76
2022/12/13 04:45:41;;;;;;;26.23;14.50;;;10.20;51.40;;;;;;5044933;28;20475;-77
2022/12/13 04:48:10;;;;;;;24.30;13.53;;;10.20;51.50;;;;;;5051024;28;20482;-76
2022/12/13 04:50:38;;;;;;;24.33;14.20;;;10.20;51.40;;;;;;5047243;28;20459;-77
2022/12/13 04:53:06;;;;;;;26.10;14.10;;;10.20;51.40;;;;;;5045686;28;20464;-77
2022/12/13 04:55:34;;;;;;;26.53;14.10;;;10.20;51.50;;;;;;5052596;28;20450;-77
2022/12/13 04:58:03;;;;;;;27.40;14.80;;;10.20;51.50;;;;;;5051041;28;20474;-77
2022/12/13 05:00:30;;;;;;;28.20;14.90;;;10.20;51.40;;;;;;5051619;28;20971;-78
2022/12/13 05:02:58;;;;;;;27.90;15.30;;;10.20;51.50;;;;;;5053013;28;20458;-77
2022/12/13 05:05:28;;;;;;;26.03;13.87;;;10.20;51.40;;;;;;5047730;28;20475;-78
2022/12/13 05:07:56;;;;;;;25.97;14.17;;;10.20;51.50;;;;;;5051075;28;20466;-78
2022/12/13 05:10:23;;;;;;;24.10;13.80;;;10.20;51.30;;;;;;5051556;28;20482;-77
2022/12/13 05:13:04;;;;;;;26.30;13.87;;;10.20;51.50;;;;;;5049434;28;20447;-77
2022/12/13 05:15:32;;;;;;;25.33;14.37;;;10.20;51.40;;;;;;5046122;28;20438;-77
2022/12/13 05:18:01;;;;;;;24.23;13.20;;;10.10;51.30;;;;;;5052895;28;20473;-78
2022/12/13 05:20:38;;;;;;;25.00;13.87;;;10.20;51.40;;;;;;5046117;28;20450;-78
2022/12/13 05:23:06;;;;;;;25.93;14.10;;;10.10;51.30;;;;;;5047978;28;20450;-77
2022/12/13 05:25:35;;;;;;;26.47;13.90;;;10.10;51.30;;;;;;5054804;28;20465;-78
2022/12/13 05:28:04;;;;;;;24.97;14.20;;;10.10;51.30;;;;;;5044580;28;20477;-77
2022/12/13 05:30:52;;;;;;;25.30;13.83;;;10.10;51.20;;;;;;5057392;28;20446;-77
2022/12/13 05:33:20;;;;;;;27.13;14.30;;;10.10;51.20;;;;;;5058377;28;20458;-78
2022/12/13 05:35:49;;;;;;;24.63;14.30;;;10.10;51.20;;;;;;5049775;28;20455;-77
2022/12/13 05:38:26;;;;;;;26.80;13.37;;;10.10;51.30;;;;;;5051451;28;20473;-76
2022/12/13 05:40:54;;;;;;;25.40;13.97;;;10.10;51.20;;;;;;5056782;28;20458;-77
2022/12/13 05:43:23;;;;;;;25.80;13.53;;;10.10;51.20;;;;;;5048691;28;20452;-78
2022/12/13 05:46:10;;;;;;;26.43;14.23;;;10.10;51.20;;;;;;5048242;28;20482;-78
2022/12/13 05:48:38;;;;;;;23.93;13.60;;;10.10;51.20;;;;;;5048359;28;20478;-78
2022/12/13 05:51:07;;;;;;;25.40;13.87;;;10.10;51.20;;;;;;5058110;28;20453;-77
2022/12/13 05:53:38;;;;;;;23.00;13.17;;;10.10;51.30;;;;;;5049160;28;20511;-77
2022/12/13 05:56:06;;;;;;;22.70;13.10;;;10.00;51.20;;;;;;5046043;28;20459;-77
2022/12/13 05:58:34;;;;;;;26.17;14.53;;;10.00;51.20;;;;;;5049723;28;20462;-77
2022/12/13 06:01:07;;;;;;;24.93;14.13;;;10.00;51.20;;;;;;5045205;28;20513;-77
2022/12/13 06:03:35;;;;;;;25.93;14.20;;;10.00;51.10;;;;;;5048285;28;20512;-78
2022/12/13 06:06:03;;;;;;;22.73;12.50;;;10.00;51.20;;;;;;5044202;28;20467;-78
2022/12/13 06:08:33;;;;;;;24.17;13.63;;;10.00;51.30;;;;;;5056640;28;20489;-77
2022/12/13 06:11:02;;;;;;;26.53;14.33;;;10.00;51.20;;;;;;5050027;28;20514;-77
2022/12/13 06:13:40;;;;;;;26.50;14.27;;;10.00;51.20;;;;;;5053786;28;20454;-78
2022/12/13 06:16:10;;;;;;;27.40;15.13;;;10.00;51.20;;;;;;5047017;28;20475;-78
2022/12/13 06:18:51;;;;;;;25.60;13.03;;;10.00;51.10;;;;;;5045646;28;20574;-79
2022/12/13 06:21:27;;;;;;;24.53;13.40;;;10.00;51.10;;;;;;5056802;28;20518;-78
2022/12/13 06:24:11;;;;;;;28.93;14.67;;;10.00;51.20;;;;;;5055161;28;20458;-78
2022/12/13 06:26:39;;;;;;;28.43;14.07;;;10.00;51.10;;;;;;5053054;28;20470;-78
2022/12/13 06:29:09;;;;;;;26.77;14.00;;;10.00;51.10;;;;;;5052811;28;20470;-78
2022/12/13 06:31:37;;;;;;;26.67;14.93;;;10.00;51.00;;;;;;5048780;28;20474;-78
2022/12/13 06:34:05;;;;;;;23.47;13.00;;;9.90;51.90;;;;;;5046329;28;20448;-77
2022/12/13 06:36:41;;;;;;;22.20;13.80;;;9.90;52.00;;;;;;5048784;28;20452;-78
2022/12/13 06:39:11;;;;;;;27.57;14.83;;;9.90;52.00;;;;;;5049469;28;20509;-77
2022/12/13 06:41:38;;;;;;;23.83;14.47;;;9.90;52.00;;;;;;5045052;28;20462;-78
2022/12/13 06:44:07;;;;;;;25.20;13.80;;;9.90;51.90;;;;;;5047875;28;20466;-77
2022/12/13 06:46:35;;;;;;;23.93;13.50;;;9.90;52.00;;;;;;5056988;28;20474;-78
2022/12/13 06:49:07;;;;;;;25.90;13.40;;;10.00;51.10;;;;;;5051004;28;20489;-78
2022/12/13 06:51:35;;;;;;;25.07;14.30;;;9.90;51.90;;;;;;5051000;28;20447;-78
2022/12/13 06:54:03;;;;;;;25.83;13.70;;;9.90;52.00;;;;;;5053294;28;20454;-78
2022/12/13 06:56:32;;;;;;;23.50;13.73;;;9.90;51.80;;;;;;5051554;28;20458;-78
2022/12/13 06:59:01;;;;;;;25.90;13.90;;;9.90;52.00;;;;;;5049390;28;20467;-78
2022/12/13 07:01:29;;;;;;;22.20;13.33;;;9.90;52.00;;;;;;5053888;28;20443;-78
2022/12/13 07:04:05;;;;;;;23.73;12.93;;;9.90;52.00;;;;;;5049272;28;20473;-78
2022/12/13 07:06:53;;;;;;;20.73;12.20;;;9.90;52.10;;;;;;5053340;28;20462;-77
2022/12/13 07:09:21;;;;;;;25.20;14.33;;;9.90;52.00;;;;;;5053798;28;20470;-78
2022/12/13 07:11:50;;;;;;;23.60;12.47;;;9.90;52.00;;;;;;5049425;28;20454;-78
2022/12/13 07:14:19;;;;;;;23.90;13.30;;;9.90;52.00;;;;;;5048837;28;20423;-78
2022/12/13 07:16:47;;;;;;;22.37;12.27;;;9.90;52.00;;;;;;5051671;28;20441;-77
2022/12/13 07:19:15;;;;;;;25.47;13.60;;;9.90;52.00;;;;;;5043154;28;20468;-78
2022/12/13 07:21:51;;;;;;;22.80;12.90;;;9.90;52.00;;;;;;5052904;28;20451;-78
2022/12/13 07:24:19;;;;;;;23.43;13.07;;;9.90;52.00;;;;;;5053324;28;20453;-78
2022/12/13 07:26:47;;;;;;;22.93;12.60;;;9.90;52.00;;;;;;5050837;28;20884;-78
2022/12/13 07:29:16;;;;;;;20.07;12.17;;;9.90;52.20;;;;;;5050580;28;20469;-78
2022/12/13 07:31:49;;;;;;;21.63;13.13;;;9.90;52.10;;;;;;5049744;28;20441;-78
2022/12/13 07:34:17;;;;;;;23.20;12.70;;;9.90;52.20;;;;;;5046708;28;20455;-78
2022/12/13 07:36:45;;;;;;;21.00;12.87;;;9.90;52.00;;;;;;5050057;28;20457;-78
2022/12/13 07:39:13;;;;;;;22.87;12.90;;;9.90;52.20;;;;;;5049024;28;20484;-78
2022/12/13 07:41:41;;;;;;;22.50;12.97;;;9.90;52.20;;;;;;5050867;28;20463;-79
2022/12/13 07:44:09;;;;;;;25.57;13.20;;;9.90;52.20;;;;;;5049434;28;20446;-78
2022/12/13 07:46:38;;;;;;;22.60;12.43;;;9.90;52.20;;;;;;5050661;28;20477;-78
2022/12/13 07:49:07;;;;;;;21.27;12.67;;;10.00;51.40;;;;;;5033734;28;20982;-78
2022/12/13 07:51:35;;;;;;;23.80;13.07;;;9.90;52.20;;;;;;5033652;28;20451;-78
2022/12/13 07:54:07;;;;;;;23.37;12.93;;;9.90;52.20;;;;;;5042419;28;20438;-77
2022/12/13 07:56:34;;;;;;;24.47;13.70;;;10.00;51.40;;;;;;5040673;28;20448;-78
2022/12/13 07:59:03;;;;;;;22.67;12.83;;;10.00;51.30;;;;;;5045326;28;20462;-78
2022/12/13 08:01:33;;;;;;;25.23;13.70;;;9.90;52.00;;;;;;5048975;28;20459;-78
2022/12/13 08:04:03;;;;;;;24.67;13.57;;;9.90;51.90;;;;;;5051616;28;20493;-79
2022/12/13 08:06:34;;;;;;;23.80;13.70;;;9.90;51.90;;;;;;5042269;28;20474;-78
2022/12/13 08:09:03;;;;;;;24.77;14.30;;;10.00;50.80;;;;;;5049472;28;20459;-78
2022/12/13 08:11:30;;;;;;;24.03;13.97;;;9.90;51.60;;;;;;5034359;28;20435;-78
2022/12/13 08:13:58;;;;;;;27.37;14.40;;;9.90;51.50;;;;;;5041296;28;20963;-79
2022/12/13 08:16:26;;;;;;;25.80;15.10;;;9.90;51.30;;;;;;5054050;28;20427;-78
2022/12/13 08:18:56;;;;;;;28.50;15.53;;;9.90;51.30;;;;;;5049971;28;20482;-78
2022/12/13 08:21:35;;;;;;;26.73;14.30;;;9.90;51.10;;;;;;5050426;28;20431;-78
2022/12/13 08:24:20;;;;;;;27.40;15.80;;;9.90;51.10;;;;;;5048281;28;20489;-78
2022/12/13 08:26:48;;;;;;;25.40;14.33;;;9.80;50.90;;;;;;5054028;28;20482;-79
2022/12/13 08:29:17;;;;;;;29.50;15.77;;;9.80;50.90;;;;;;5041334;28;20471;-78
2022/12/13 08:31:50;;;;;;;25.20;13.63;;;9.90;51.00;;;;;;5047070;28;20497;-79
2022/12/13 08:34:18;;;;;;;28.53;15.50;;;9.90;51.00;;;;;;5047836;28;20542;-78
2022/12/13 08:36:48;;;;;;;26.90;14.80;;;9.90;50.90;;;;;;5053308;28;20450;-78
2022/12/13 08:39:16;;;;;;;29.93;15.40;;;9.90;51.00;;;;;;5050928;28;20482;-78
2022/12/13 08:41:43;;;;;;;26.80;14.20;;;9.90;51.20;;;;;;5054649;28;20459;-79
2022/12/13 08:44:12;;;;;;;27.30;14.90;;;9.90;51.30;;;;;;5048217;28;20458;-78
2022/12/13 08:46:39;;;;;;;26.43;14.13;;;9.90;51.20;;;;;;5050729;28;20470;-79
2022/12/13 08:49:08;;;;;;;30.43;15.27;;;9.90;51.30;;;;;;5044949;28;20478;-80
2022/12/13 08:51:36;;;;;;;26.13;14.30;;;9.90;51.50;;;;;;5053111;28;20526;-80
2022/12/13 08:54:05;;;;;;;25.60;14.37;;;10.00;50.70;;;;;;5050906;28;20830;-80
2022/12/13 08:56:37;;;;;;;26.17;14.70;;;9.90;52.10;;;;;;5044072;28;20597;-80
2022/12/13 08:59:10;;;;;;;27.20;14.30;;;9.90;51.60;;;;;;5050218;28;20450;-79
2022/12/13 09:01:38;;;;;;;26.77;15.10;;;10.00;50.80;;;;;;5050760;28;20446;-80
2022/12/13 09:04:05;;;;;;;23.67;14.40;;;10.00;50.80;;;;;;5053387;28;20529;-79
2022/12/13 09:06:33;;;;;;;26.30;14.33;;;10.00;50.80;;;;;;5049614;28;20434;-79
2022/12/13 09:09:02;;;;;;;25.07;13.83;;;10.00;50.80;;;;;;5046667;28;20474;-80
2022/12/13 09:11:31;;;;;;;25.13;14.63;;;10.10;51.00;;;;;;5045176;28;20494;-80
2022/12/13 09:14:07;;;;;;;27.40;14.60;;;10.10;51.00;;;;;;5058769;28;20480;-80
2022/12/13 09:16:40;;;;;;;25.23;14.27;;;10.10;50.80;;;;;;5050003;28;20449;-80
2022/12/13 09:19:17;;;;;;;25.80;14.50;;;10.10;51.00;;;;;;5044819;28;20474;-80
2022/12/13 09:21:53;;;;;;;27.40;14.37;;;10.10;51.10;;;;;;5052080;28;20469;-79
2022/12/13 09:24:29;;;;;;;23.30;13.00;;;10.20;51.10;;;;;;5051549;28;20453;-80
2022/12/13 09:27:05;;;;;;;28.53;14.53;;;10.20;51.10;;;;;;5048848;28;20491;-80
2022/12/13 09:29:37;;;;;;;24.83;14.30;;;10.20;51.00;;;;;;5052387;28;20435;-79
2022/12/13 09:32:05;;;;;;;25.27;13.83;;;10.30;51.10;;;;;;5052022;28;20438;-79
2022/12/13 09:34:33;;;;;;;25.60;13.93;;;10.30;51.20;;;;;;5050261;28;20500;-80
2022/12/13 09:37:01;;;;;;;24.23;13.90;;;10.30;51.20;;;;;;5041614;28;20457;-79
2022/12/13 09:39:30;;;;;;;25.23;13.83;;;10.30;51.20;;;;;;5053317;28;20450;-79
2022/12/13 09:41:58;;;;;;;24.33;13.40;;;10.30;51.20;;;;;;5053889;28;20447;-80
2022/12/13 09:44:30;;;;;;;22.80;13.03;;;10.30;51.10;;;;;;5046503;28;20471;-78
2022/12/13 09:47:18;;;;;;;28.07;13.53;;;10.40;51.10;;;;;;5044996;28;20477;-79
2022/12/13 09:49:51;;;;;;;21.73;13.00;;;10.40;51.20;;;;;;5054351;28;20446;-80
2022/12/13 09:52:22;;;;;;;25.93;13.50;;;10.40;51.20;;;;;;5052002;28;20449;-79
2022/12/13 09:54:50;;;;;;;24.43;13.50;;;10.40;51.20;;;;;;5047910;28;20454;-80
2022/12/13 09:57:19;;;;;;;29.77;14.43;;;10.50;51.20;;;;;;5047555;28;20435;-80
2022/12/13 10:00:01;;;;;;;23.60;13.73;;;10.50;51.10;;;;;;5055157;28;20517;-79
2022/12/13 10:02:30;;;;;;;21.60;13.30;;;10.50;51.80;;;;;;5056305;28;20493;-79
2022/12/13 10:05:00;;;;;;;25.07;13.97;;;10.50;51.20;;;;;;5048914;28;20470;-80
2022/12/13 10:07:29;;;;;;;21.13;12.63;;;10.50;51.10;;;;;;5052740;28;20478;-80
2022/12/13 10:10:00;;;;;;;26.50;14.73;;;10.50;51.30;;;;;;5056660;28;20439;-79
2022/12/13 10:12:28;;;;;;;25.83;14.10;;;10.50;51.10;;;;;;5048771;28;20451;-80
2022/12/13 10:14:58;;;;;;;23.63;13.53;;;10.40;51.30;;;;;;5055524;28;20929;-80
2022/12/13 10:17:28;;;;;;;23.80;13.17;;;10.50;51.40;;;;;;5056528;28;20458;-80
2022/12/13 10:20:05;;;;;;;25.53;13.87;;;10.50;51.10;;;;;;5048842;28;20444;-80
2022/12/13 10:22:33;;;;;;;24.23;14.00;;;10.60;51.20;;;;;;5055759;28;20450;-80
2022/12/13 10:25:02;;;;;;;24.67;13.60;;;10.50;51.00;;;;;;5047836;28;20492;-80
2022/12/13 10:27:33;;;;;;;25.70;14.00;;;10.60;51.10;;;;;;5054012;28;20474;-80
2022/12/13 10:30:05;;;;;;;22.40;12.50;;;10.50;51.20;;;;;;5048136;28;20439;-80
2022/12/13 10:32:41;;;;;;;24.97;14.37;;;10.60;51.20;;;;;;5048193;28;20450;-80
2022/12/13 10:35:24;;;;;;;27.20;14.90;;;10.60;51.10;;;;;;5049385;28;20437;-80
2022/12/13 10:37:52;;;;;;;23.07;12.87;;;10.60;51.10;;;;;;5049443;28;20455;-80
2022/12/13 10:40:25;;;;;;;24.50;14.03;;;10.60;51.20;;;;;;5050675;28;20447;-80
2022/12/13 10:43:12;;;;;;;25.10;14.07;;;10.60;51.10;;;;;;5052254;28;20864;-80
2022/12/13 10:45:41;;;;;;;28.13;14.43;;;10.70;51.20;;;;;;5052248;28;20451;-80
2022/12/13 10:48:19;;;;;;;22.03;12.87;;;10.70;51.20;;;;;;5053021;28;20474;-79
2022/12/13 10:50:57;;;;;;;27.63;14.97;;;10.70;51.20;;;;;;5053496;28;20442;-80
2022/12/13 10:53:26;;;;;;;30.40;13.73;;;10.60;51.00;;;;;;5053777;28;20471;-79
2022/12/13 10:55:54;;;;;;;22.97;13.37;;;10.70;51.20;;;;;;5046890;28;20442;-80
2022/12/13 10:58:22;;;;;;;22.83;13.20;;;10.60;51.20;;;;;;5048529;28;20462;-80
2022/12/13 11:00:50;;;;;;;23.70;14.03;;;10.70;51.40;;;;;;5051024;28;20443;-80
2022/12/13 11:03:31;;;;;;;28.30;14.57;;;10.70;51.30;;;;;;5055153;28;20450;-80
2022/12/13 11:06:03;;;;;;;29.00;14.77;;;10.70;51.40;;;;;;5051520;28;20516;-80
2022/12/13 11:08:31;;;;;;;23.50;13.80;;;10.60;51.40;;;;;;5050812;28;20466;-80
2022/12/13 11:11:00;;;;;;;24.63;13.47;;;10.70;51.50;;;;;;5046587;28;20431;-79
2022/12/13 11:13:35;;;;;;;28.13;13.33;;;10.70;51.50;;;;;;5047880;28;20466;-80
2022/12/13 11:16:04;;;;;;;25.33;14.40;;;10.70;51.50;;;;;;5047525;28;20451;-80
2022/12/13 11:18:36;;;;;;;24.43;13.40;;;10.80;51.60;;;;;;5051659;28;20463;-79
2022/12/13 11:21:04;;;;;;;22.73;13.83;;;10.80;51.60;;;;;;5046766;28;20439;-80
2022/12/13 11:23:32;;;;;;;25.90;13.80;;;10.80;51.60;;;;;;5046035;28;20450;-80
2022/12/13 11:26:02;;;;;;;27.60;13.80;;;10.90;51.40;;;;;;5045055;28;20470;-79
2022/12/13 11:28:39;;;;;;;24.53;13.70;;;10.80;51.40;;;;;;5054536;28;20478;-79
2022/12/13 11:31:11;;;;;;;26.67;14.60;;;10.90;51.40;;;;;;5054242;28;20489;-79
2022/12/13 11:33:44;;;;;;;31.20;13.90;;;10.90;51.40;;;;;;5051422;28;20439;-79
2022/12/13 11:36:21;;;;;;;24.43;14.50;;;10.90;51.40;;;;;;5046785;28;20472;-80
2022/12/13 11:38:56;;;;;;;27.73;14.50;;;10.80;51.20;;;;;;5041024;28;20467;-80
2022/12/13 11:41:26;;;;;;;24.23;14.20;;;10.80;51.20;;;;;;5050583;28;20450;-80
2022/12/13 11:44:01;;;;;;;26.13;13.70;;;10.80;51.50;;;;;;5054259;28;20438;-80
2022/12/13 11:46:35;;;;;;;25.10;13.97;;;10.80;51.40;;;;;;5054519;28;20442;-80
2022/12/13 11:49:09;;;;;;;24.87;13.90;;;10.80;51.40;;;;;;5047280;28;20481;-81
2022/12/13 11:51:40;;;;;;;27.77;14.87;;;10.80;51.30;;;;;;5046464;28;20450;-80
2022/12/13 11:54:10;;;;;;;24.60;13.97;;;10.80;51.50;;;;;;5046719;28;20427;-80
2022/12/13 11:56:41;;;;;;;27.47;14.90;;;10.80;51.60;;;;;;5049020;28;20470;-81
2022/12/13 11:59:14;;;;;;;26.13;14.80;;;10.80;51.50;;;;;;5054331;28;20450;-81
2022/12/13 12:01:54;;;;;;;26.97;15.60;;;10.80;51.50;;;;;;5054448;28;20474;-80
2022/12/13 12:04:26;;;;;;;31.13;15.17;;;10.80;51.50;;;;;;5050377;28;20431;-80
2022/12/13 12:06:57;;;;;;;27.20;15.67;;;10.80;51.40;;;;;;5048845;28;20458;-80
2022/12/13 12:09:49;;;;;;;26.50;15.40;;;10.80;51.50;;;;;;5049982;28;20478;-79
2022/12/13 12:12:21;;;;;;;28.00;15.00;;;10.90;51.60;;;;;;5052321;28;20500;-81
2022/12/13 12:14:52;;;;;;;24.33;14.40;;;10.90;51.60;;;;;;5052410;28;20454;-80
2022/12/13 12:17:23;;;;;;;25.40;14.23;;;10.90;51.70;;;;;;5053611;28;20450;-79
2022/12/13 12:19:53;;;;;;;28.43;15.40;;;10.90;51.60;;;;;;5058044;28;20430;-79
2022/12/13 12:22:29;;;;;;;26.33;14.60;;;10.90;51.70;;;;;;5049243;28;20988;-80
2022/12/13 12:25:03;;;;;;;28.57;15.37;;;10.90;52.30;;;;;;5053374;28;20441;-79
2022/12/13 12:27:37;;;;;;;26.23;13.97;;;11.00;51.80;;;;;;5055173;28;20446;-80
2022/12/13 12:30:14;;;;;;;27.50;15.33;;;11.00;51.60;;;;;;5047907;28;20462;-80
2022/12/13 12:32:53;;;;;;;27.03;14.97;;;11.00;51.70;;;;;;5051578;28;20541;-80
2022/12/13 12:35:50;;;;;;;26.20;13.53;;;11.00;51.70;;;;;;5055194;28;20439;-80
2022/12/13 12:38:44;;;;;;;27.97;14.77;;;11.00;51.70;;;;;;5044865;28;20462;-80
2022/12/13 12:41:28;;;;;;;28.67;15.07;;;11.00;51.80;;;;;;5046437;28;20438;-80
2022/12/13 12:44:00;;;;;;;27.73;14.80;;;11.00;52.00;;;;;;5054635;28;20442;-80
2022/12/13 12:46:37;;;;;;;28.33;14.23;;;11.00;52.60;;;;;;5055077;28;20442;-80
2022/12/13 12:49:53;;;;;;;28.93;14.47;;;11.00;52.00;;;;;;5050915;28;20516;-80
2022/12/13 12:52:27;;;;;;;33.30;16.37;;;11.00;52.10;;;;;;5043325;28;20427;-80